sensor_id;sensor_type;location;lat;lon;timestamp;P1;durP1;ratioP1;P2;durP2;ratioP2
43216;SDS011;71549;42.686;23.300;2024-03-25T00:01:50;1.65;;;1.20;;
43216;SDS011;71549;42.686;23.300;2024-03-25T00:03:53;1.23;;;1.00;;
43216;SDS011;71549;42.686;23.300;2024-03-25T00:05:55;1.42;;;1.08;;
43216;SDS011;71549;42.686;23.300;2024-03-25T00:07:57;1.40;;;1.30;;
43216;SDS011;71549;42.686;23.300;2024-03-25T00:10:01;1.50;;;1.40;;
43216;SDS011;71549;42.686;23.300;2024-03-25T00:12:02;1.27;;;0.90;;
43216;SDS011;71549;42.686;23.300;2024-03-25T00:14:04;1.30;;;1.20;;
43216;SDS011;71549;42.686;23.300;2024-03-25T00:16:06;1.27;;;1.17;;
43216;SDS011;71549;42.686;23.300;2024-03-25T00:18:08;0.82;;;0.82;;
43216;SDS011;71549;42.686;23.300;2024-03-25T00:20:09;1.50;;;1.40;;
43216;SDS011;71549;42.686;23.300;2024-03-25T00:22:13;1.08;;;0.95;;
43216;SDS011;71549;42.686;23.300;2024-03-25T00:24:14;1.48;;;1.10;;
43216;SDS011;71549;42.686;23.300;2024-03-25T00:26:17;0.63;;;0.63;;
43216;SDS011;71549;42.686;23.300;2024-03-25T00:28:18;2.13;;;1.10;;
43216;SDS011;71549;42.686;23.300;2024-03-25T00:30:20;1.10;;;1.00;;
43216;SDS011;71549;42.686;23.300;2024-03-25T00:32:21;1.90;;;1.08;;
43216;SDS011;71549;42.686;23.300;2024-03-25T00:34:23;1.10;;;0.90;;
43216;SDS011;71549;42.686;23.300;2024-03-25T00:36:24;1.55;;;0.90;;
43216;SDS011;71549;42.686;23.300;2024-03-25T00:38:26;1.33;;;1.05;;
43216;SDS011;71549;42.686;23.300;2024-03-25T00:40:27;0.93;;;0.90;;
43216;SDS011;71549;42.686;23.300;2024-03-25T00:42:31;1.10;;;1.00;;
43216;SDS011;71549;42.686;23.300;2024-03-25T00:44:32;1.30;;;1.02;;
43216;SDS011;71549;42.686;23.300;2024-03-25T00:46:34;0.80;;;0.80;;
43216;SDS011;71549;42.686;23.300;2024-03-25T00:48:35;0.90;;;0.80;;
43216;SDS011;71549;42.686;23.300;2024-03-25T00:50:38;1.58;;;0.80;;
43216;SDS011;71549;42.686;23.300;2024-03-25T00:52:39;1.02;;;0.98;;
43216;SDS011;71549;42.686;23.300;2024-03-25T00:54:41;1.00;;;0.90;;
43216;SDS011;71549;42.686;23.300;2024-03-25T00:56:42;1.02;;;0.90;;
43216;SDS011;71549;42.686;23.300;2024-03-25T00:58:47;0.98;;;0.70;;
43216;SDS011;71549;42.686;23.300;2024-03-25T01:00:48;0.82;;;0.77;;
43216;SDS011;71549;42.686;23.300;2024-03-25T01:02:50;0.85;;;0.73;;
43216;SDS011;71549;42.686;23.300;2024-03-25T01:04:52;1.10;;;1.00;;
43216;SDS011;71549;42.686;23.300;2024-03-25T01:06:54;1.30;;;0.73;;
43216;SDS011;71549;42.686;23.300;2024-03-25T01:08:55;0.73;;;0.68;;
43216;SDS011;71549;42.686;23.300;2024-03-25T01:10:57;1.50;;;0.93;;
43216;SDS011;71549;42.686;23.300;2024-03-25T01:12:58;0.80;;;0.80;;
43216;SDS011;71549;42.686;23.300;2024-03-25T01:15:01;0.98;;;0.73;;
43216;SDS011;71549;42.686;23.300;2024-03-25T01:17:04;1.25;;;0.50;;
43216;SDS011;71549;42.686;23.300;2024-03-25T01:19:05;0.95;;;0.70;;
43216;SDS011;71549;42.686;23.300;2024-03-25T01:21:07;0.80;;;0.70;;
43216;SDS011;71549;42.686;23.300;2024-03-25T01:23:08;1.23;;;0.85;;
43216;SDS011;71549;42.686;23.300;2024-03-25T01:25:10;1.10;;;0.60;;
43216;SDS011;71549;42.686;23.300;2024-03-25T01:27:11;1.08;;;0.95;;
43216;SDS011;71549;42.686;23.300;2024-03-25T01:29:13;1.00;;;0.90;;
43216;SDS011;71549;42.686;23.300;2024-03-25T01:31:17;0.80;;;0.63;;
43216;SDS011;71549;42.686;23.300;2024-03-25T01:33:19;0.70;;;0.70;;
43216;SDS011;71549;42.686;23.300;2024-03-25T01:35:20;0.50;;;0.50;;
43216;SDS011;71549;42.686;23.300;2024-03-25T01:37:23;0.63;;;0.60;;
43216;SDS011;71549;42.686;23.300;2024-03-25T01:39:23;1.10;;;0.68;;
43216;SDS011;71549;42.686;23.300;2024-03-25T01:41:25;0.63;;;0.63;;
43216;SDS011;71549;42.686;23.300;2024-03-25T01:43:26;0.98;;;0.70;;
43216;SDS011;71549;42.686;23.300;2024-03-25T01:45:29;0.75;;;0.60;;
43216;SDS011;71549;42.686;23.300;2024-03-25T01:47:32;0.35;;;0.35;;
43216;SDS011;71549;42.686;23.300;2024-03-25T01:49:35;0.73;;;0.52;;
43216;SDS011;71549;42.686;23.300;2024-03-25T01:51:37;0.50;;;0.50;;
43216;SDS011;71549;42.686;23.300;2024-03-25T01:53:41;0.98;;;0.65;;
43216;SDS011;71549;42.686;23.300;2024-03-25T01:55:43;0.70;;;0.57;;
43216;SDS011;71549;42.686;23.300;2024-03-25T01:57:45;0.68;;;0.60;;
43216;SDS011;71549;42.686;23.300;2024-03-25T01:59:47;0.52;;;0.50;;
43216;SDS011;71549;42.686;23.300;2024-03-25T02:01:50;0.60;;;0.52;;
43216;SDS011;71549;42.686;23.300;2024-03-25T02:03:53;0.60;;;0.40;;
43216;SDS011;71549;42.686;23.300;2024-03-25T02:05:57;1.00;;;0.57;;
43216;SDS011;71549;42.686;23.300;2024-03-25T02:08:01;1.13;;;0.73;;
43216;SDS011;71549;42.686;23.300;2024-03-25T02:10:08;0.73;;;0.52;;
43216;SDS011;71549;42.686;23.300;2024-03-25T02:12:10;0.70;;;0.57;;
43216;SDS011;71549;42.686;23.300;2024-03-25T02:14:12;0.70;;;0.40;;
43216;SDS011;71549;42.686;23.300;2024-03-25T02:16:13;0.60;;;0.60;;
43216;SDS011;71549;42.686;23.300;2024-03-25T02:18:15;0.63;;;0.50;;
43216;SDS011;71549;42.686;23.300;2024-03-25T02:20:18;0.63;;;0.50;;
43216;SDS011;71549;42.686;23.300;2024-03-25T02:22:19;1.03;;;0.63;;
43216;SDS011;71549;42.686;23.300;2024-03-25T02:24:21;0.60;;;0.43;;
43216;SDS011;71549;42.686;23.300;2024-03-25T02:26:28;0.73;;;0.50;;
43216;SDS011;71549;42.686;23.300;2024-03-25T02:28:31;0.60;;;0.40;;
43216;SDS011;71549;42.686;23.300;2024-03-25T02:30:32;0.98;;;0.60;;
43216;SDS011;71549;42.686;23.300;2024-03-25T02:32:34;1.08;;;0.55;;
43216;SDS011;71549;42.686;23.300;2024-03-25T02:34:35;1.20;;;0.82;;
43216;SDS011;71549;42.686;23.300;2024-03-25T02:36:38;0.60;;;0.60;;
43216;SDS011;71549;42.686;23.300;2024-03-25T02:38:39;0.47;;;0.38;;
43216;SDS011;71549;42.686;23.300;2024-03-25T02:40:41;0.70;;;0.45;;
43216;SDS011;71549;42.686;23.300;2024-03-25T02:42:44;1.42;;;0.30;;
43216;SDS011;71549;42.686;23.300;2024-03-25T02:44:46;0.70;;;0.50;;
43216;SDS011;71549;42.686;23.300;2024-03-25T02:46:47;0.80;;;0.60;;
43216;SDS011;71549;42.686;23.300;2024-03-25T02:48:50;0.80;;;0.50;;
43216;SDS011;71549;42.686;23.300;2024-03-25T02:50:51;0.77;;;0.52;;
43216;SDS011;71549;42.686;23.300;2024-03-25T02:52:53;0.43;;;0.40;;
43216;SDS011;71549;42.686;23.300;2024-03-25T02:54:54;1.80;;;0.70;;
43216;SDS011;71549;42.686;23.300;2024-03-25T02:56:56;0.47;;;0.43;;
43216;SDS011;71549;42.686;23.300;2024-03-25T02:58:59;0.63;;;0.40;;
43216;SDS011;71549;42.686;23.300;2024-03-25T03:03:01;0.47;;;0.40;;
43216;SDS011;71549;42.686;23.300;2024-03-25T03:05:04;0.73;;;0.60;;
43216;SDS011;71549;42.686;23.300;2024-03-25T03:07:05;0.50;;;0.30;;
43216;SDS011;71549;42.686;23.300;2024-03-25T03:09:07;0.50;;;0.30;;
43216;SDS011;71549;42.686;23.300;2024-03-25T03:11:08;0.60;;;0.50;;
43216;SDS011;71549;42.686;23.300;2024-03-25T03:13:10;0.40;;;0.28;;
43216;SDS011;71549;42.686;23.300;2024-03-25T03:15:13;0.57;;;0.30;;
43216;SDS011;71549;42.686;23.300;2024-03-25T03:17:15;0.57;;;0.50;;
43216;SDS011;71549;42.686;23.300;2024-03-25T03:19:16;0.55;;;0.40;;
43216;SDS011;71549;42.686;23.300;2024-03-25T03:21:18;0.55;;;0.45;;
43216;SDS011;71549;42.686;23.300;2024-03-25T03:23:19;0.50;;;0.40;;
43216;SDS011;71549;42.686;23.300;2024-03-25T03:25:21;0.52;;;0.40;;
43216;SDS011;71549;42.686;23.300;2024-03-25T03:27:22;0.73;;;0.47;;
43216;SDS011;71549;42.686;23.300;2024-03-25T03:29:24;0.60;;;0.35;;
43216;SDS011;71549;42.686;23.300;2024-03-25T03:31:27;0.55;;;0.40;;
43216;SDS011;71549;42.686;23.300;2024-03-25T03:33:29;0.75;;;0.40;;
43216;SDS011;71549;42.686;23.300;2024-03-25T03:35:32;0.52;;;0.43;;
43216;SDS011;71549;42.686;23.300;2024-03-25T03:37:34;0.30;;;0.28;;
43216;SDS011;71549;42.686;23.300;2024-03-25T03:39:35;0.40;;;0.40;;
43216;SDS011;71549;42.686;23.300;2024-03-25T03:41:37;0.60;;;0.45;;
43216;SDS011;71549;42.686;23.300;2024-03-25T03:43:38;1.30;;;0.52;;
43216;SDS011;71549;42.686;23.300;2024-03-25T03:45:40;0.47;;;0.40;;
43216;SDS011;71549;42.686;23.300;2024-03-25T03:47:42;0.65;;;0.40;;
43216;SDS011;71549;42.686;23.300;2024-03-25T03:49:44;0.50;;;0.30;;
43216;SDS011;71549;42.686;23.300;2024-03-25T03:51:46;0.68;;;0.25;;
43216;SDS011;71549;42.686;23.300;2024-03-25T03:53:48;0.47;;;0.40;;
43216;SDS011;71549;42.686;23.300;2024-03-25T03:55:55;0.45;;;0.40;;
43216;SDS011;71549;42.686;23.300;2024-03-25T03:57:57;0.20;;;0.20;;
43216;SDS011;71549;42.686;23.300;2024-03-25T03:59:58;0.30;;;0.30;;
43216;SDS011;71549;42.686;23.300;2024-03-25T04:02:00;0.40;;;0.20;;
43216;SDS011;71549;42.686;23.300;2024-03-25T04:04:03;0.50;;;0.50;;
43216;SDS011;71549;42.686;23.300;2024-03-25T04:06:07;0.25;;;0.20;;
43216;SDS011;71549;42.686;23.300;2024-03-25T04:08:09;0.47;;;0.30;;
43216;SDS011;71549;42.686;23.300;2024-03-25T04:10:11;1.13;;;0.30;;
43216;SDS011;71549;42.686;23.300;2024-03-25T04:12:12;0.40;;;0.28;;
43216;SDS011;71549;42.686;23.300;2024-03-25T04:14:14;0.20;;;0.13;;
43216;SDS011;71549;42.686;23.300;2024-03-25T04:16:15;0.20;;;0.20;;
43216;SDS011;71549;42.686;23.300;2024-03-25T04:18:18;0.30;;;0.20;;
43216;SDS011;71549;42.686;23.300;2024-03-25T04:20:20;0.38;;;0.20;;
43216;SDS011;71549;42.686;23.300;2024-03-25T04:24:23;0.20;;;0.20;;
43216;SDS011;71549;42.686;23.300;2024-03-25T04:26:25;0.20;;;0.20;;
43216;SDS011;71549;42.686;23.300;2024-03-25T04:28:26;0.98;;;0.20;;
43216;SDS011;71549;42.686;23.300;2024-03-25T04:30:28;0.50;;;0.30;;
43216;SDS011;71549;42.686;23.300;2024-03-25T04:32:29;0.43;;;0.28;;
43216;SDS011;71549;42.686;23.300;2024-03-25T04:34:31;0.40;;;0.20;;
43216;SDS011;71549;42.686;23.300;2024-03-25T04:36:33;0.47;;;0.40;;
43216;SDS011;71549;42.686;23.300;2024-03-25T04:40:36;0.35;;;0.35;;
43216;SDS011;71549;42.686;23.300;2024-03-25T04:42:37;0.20;;;0.20;;
43216;SDS011;71549;42.686;23.300;2024-03-25T04:44:38;0.35;;;0.25;;
43216;SDS011;71549;42.686;23.300;2024-03-25T04:46:39;1.67;;;0.45;;
43216;SDS011;71549;42.686;23.300;2024-03-25T04:48:40;0.50;;;0.40;;
43216;SDS011;71549;42.686;23.300;2024-03-25T04:50:41;0.55;;;0.20;;
43216;SDS011;71549;42.686;23.300;2024-03-25T04:52:44;0.20;;;0.20;;
43216;SDS011;71549;42.686;23.300;2024-03-25T04:54:45;0.65;;;0.25;;
43216;SDS011;71549;42.686;23.300;2024-03-25T04:56:46;0.22;;;0.22;;
43216;SDS011;71549;42.686;23.300;2024-03-25T04:58:47;0.40;;;0.30;;
43216;SDS011;71549;42.686;23.300;2024-03-25T05:00:48;0.20;;;0.20;;
43216;SDS011;71549;42.686;23.300;2024-03-25T05:02:49;0.65;;;0.40;;
43216;SDS011;71549;42.686;23.300;2024-03-25T05:04:50;0.47;;;0.32;;
43216;SDS011;71549;42.686;23.300;2024-03-25T05:06:51;0.50;;;0.30;;
43216;SDS011;71549;42.686;23.300;2024-03-25T05:08:53;0.60;;;0.40;;
43216;SDS011;71549;42.686;23.300;2024-03-25T05:10:54;0.30;;;0.20;;
43216;SDS011;71549;42.686;23.300;2024-03-25T05:12:55;0.63;;;0.20;;
43216;SDS011;71549;42.686;23.300;2024-03-25T05:14:56;0.43;;;0.25;;
43216;SDS011;71549;42.686;23.300;2024-03-25T05:16:57;0.30;;;0.30;;
43216;SDS011;71549;42.686;23.300;2024-03-25T05:18:58;1.30;;;0.55;;
43216;SDS011;71549;42.686;23.300;2024-03-25T05:20:59;0.30;;;0.20;;
43216;SDS011;71549;42.686;23.300;2024-03-25T05:23:00;0.40;;;0.30;;
43216;SDS011;71549;42.686;23.300;2024-03-25T05:25:03;0.40;;;0.20;;
43216;SDS011;71549;42.686;23.300;2024-03-25T05:27:05;0.50;;;0.30;;
43216;SDS011;71549;42.686;23.300;2024-03-25T05:29:06;1.40;;;0.30;;
43216;SDS011;71549;42.686;23.300;2024-03-25T05:31:07;0.98;;;0.45;;
43216;SDS011;71549;42.686;23.300;2024-03-25T05:33:08;1.15;;;0.47;;
43216;SDS011;71549;42.686;23.300;2024-03-25T05:35:09;0.40;;;0.35;;
43216;SDS011;71549;42.686;23.300;2024-03-25T05:37:10;0.43;;;0.30;;
43216;SDS011;71549;42.686;23.300;2024-03-25T05:39:11;0.38;;;0.35;;
43216;SDS011;71549;42.686;23.300;2024-03-25T05:41:13;0.40;;;0.40;;
43216;SDS011;71549;42.686;23.300;2024-03-25T05:43:14;0.40;;;0.32;;
43216;SDS011;71549;42.686;23.300;2024-03-25T05:45:15;0.50;;;0.50;;
43216;SDS011;71549;42.686;23.300;2024-03-25T05:47:16;0.45;;;0.40;;
43216;SDS011;71549;42.686;23.300;2024-03-25T05:49:17;0.45;;;0.30;;
43216;SDS011;71549;42.686;23.300;2024-03-25T05:51:18;0.50;;;0.30;;
43216;SDS011;71549;42.686;23.300;2024-03-25T05:53:19;0.50;;;0.47;;
43216;SDS011;71549;42.686;23.300;2024-03-25T05:55:20;0.50;;;0.40;;
43216;SDS011;71549;42.686;23.300;2024-03-25T05:57:22;0.68;;;0.50;;
43216;SDS011;71549;42.686;23.300;2024-03-25T05:59:23;3.05;;;0.70;;
43216;SDS011;71549;42.686;23.300;2024-03-25T06:01:25;0.55;;;0.52;;
43216;SDS011;71549;42.686;23.300;2024-03-25T06:03:26;0.32;;;0.25;;
43216;SDS011;71549;42.686;23.300;2024-03-25T06:05:27;0.60;;;0.60;;
43216;SDS011;71549;42.686;23.300;2024-03-25T06:07:28;0.75;;;0.50;;
43216;SDS011;71549;42.686;23.300;2024-03-25T06:09:29;0.80;;;0.40;;
43216;SDS011;71549;42.686;23.300;2024-03-25T06:11:30;0.43;;;0.40;;
43216;SDS011;71549;42.686;23.300;2024-03-25T06:13:32;0.70;;;0.57;;
43216;SDS011;71549;42.686;23.300;2024-03-25T06:15:33;0.75;;;0.75;;
43216;SDS011;71549;42.686;23.300;2024-03-25T06:17:35;1.23;;;0.60;;
43216;SDS011;71549;42.686;23.300;2024-03-25T06:19:36;0.40;;;0.40;;
43216;SDS011;71549;42.686;23.300;2024-03-25T06:21:37;0.50;;;0.50;;
43216;SDS011;71549;42.686;23.300;2024-03-25T06:23:38;0.80;;;0.60;;
43216;SDS011;71549;42.686;23.300;2024-03-25T06:25:39;0.98;;;0.60;;
43216;SDS011;71549;42.686;23.300;2024-03-25T06:27:40;1.95;;;0.70;;
43216;SDS011;71549;42.686;23.300;2024-03-25T06:29:43;1.38;;;0.60;;
43216;SDS011;71549;42.686;23.300;2024-03-25T06:31:44;1.13;;;0.40;;
43216;SDS011;71549;42.686;23.300;2024-03-25T06:34:03;1.58;;;0.70;;
43216;SDS011;71549;42.686;23.300;2024-03-25T06:36:18;2.38;;;0.90;;
43216;SDS011;71549;42.686;23.300;2024-03-25T06:38:19;2.75;;;1.23;;
43216;SDS011;71549;42.686;23.300;2024-03-25T06:40:20;3.17;;;1.00;;
43216;SDS011;71549;42.686;23.300;2024-03-25T06:42:21;2.03;;;1.13;;
43216;SDS011;71549;42.686;23.300;2024-03-25T06:44:22;2.60;;;0.90;;
43216;SDS011;71549;42.686;23.300;2024-03-25T06:46:24;4.60;;;1.27;;
43216;SDS011;71549;42.686;23.300;2024-03-25T06:48:25;2.45;;;1.20;;
43216;SDS011;71549;42.686;23.300;2024-03-25T06:50:26;5.88;;;1.35;;
43216;SDS011;71549;42.686;23.300;2024-03-25T06:52:28;3.28;;;1.27;;
43216;SDS011;71549;42.686;23.300;2024-03-25T06:54:29;2.72;;;1.45;;
43216;SDS011;71549;42.686;23.300;2024-03-25T06:56:30;5.75;;;1.45;;
43216;SDS011;71549;42.686;23.300;2024-03-25T06:58:31;1.80;;;1.15;;
43216;SDS011;71549;42.686;23.300;2024-03-25T07:00:34;1.88;;;1.15;;
43216;SDS011;71549;42.686;23.300;2024-03-25T07:02:36;3.33;;;1.42;;
43216;SDS011;71549;42.686;23.300;2024-03-25T07:04:37;1.75;;;1.35;;
43216;SDS011;71549;42.686;23.300;2024-03-25T07:06:38;3.92;;;1.38;;
43216;SDS011;71549;42.686;23.300;2024-03-25T07:08:39;3.22;;;1.45;;
43216;SDS011;71549;42.686;23.300;2024-03-25T07:10:41;5.18;;;1.30;;
43216;SDS011;71549;42.686;23.300;2024-03-25T07:12:42;3.27;;;1.47;;
43216;SDS011;71549;42.686;23.300;2024-03-25T07:14:43;3.80;;;1.60;;
43216;SDS011;71549;42.686;23.300;2024-03-25T07:16:44;3.42;;;1.20;;
43216;SDS011;71549;42.686;23.300;2024-03-25T07:18:47;3.38;;;1.35;;
43216;SDS011;71549;42.686;23.300;2024-03-25T07:20:48;4.60;;;1.20;;
43216;SDS011;71549;42.686;23.300;2024-03-25T07:22:49;3.60;;;1.50;;
43216;SDS011;71549;42.686;23.300;2024-03-25T07:24:50;3.42;;;1.35;;
43216;SDS011;71549;42.686;23.300;2024-03-25T07:26:51;2.00;;;1.10;;
43216;SDS011;71549;42.686;23.300;2024-03-25T07:28:52;2.50;;;1.30;;
43216;SDS011;71549;42.686;23.300;2024-03-25T07:30:53;2.53;;;1.38;;
43216;SDS011;71549;42.686;23.300;2024-03-25T07:32:54;2.55;;;1.33;;
43216;SDS011;71549;42.686;23.300;2024-03-25T07:34:56;4.88;;;1.52;;
43216;SDS011;71549;42.686;23.300;2024-03-25T07:36:57;3.63;;;1.30;;
43216;SDS011;71549;42.686;23.300;2024-03-25T07:38:58;2.75;;;1.52;;
43216;SDS011;71549;42.686;23.300;2024-03-25T07:41:02;2.72;;;1.27;;
43216;SDS011;71549;42.686;23.300;2024-03-25T07:43:04;2.47;;;1.10;;
43216;SDS011;71549;42.686;23.300;2024-03-25T07:45:05;2.80;;;1.65;;
43216;SDS011;71549;42.686;23.300;2024-03-25T07:47:07;2.97;;;1.45;;
43216;SDS011;71549;42.686;23.300;2024-03-25T07:49:08;1.63;;;1.15;;
43216;SDS011;71549;42.686;23.300;2024-03-25T07:51:10;2.42;;;1.20;;
43216;SDS011;71549;42.686;23.300;2024-03-25T07:53:11;1.73;;;1.30;;
43216;SDS011;71549;42.686;23.300;2024-03-25T07:55:12;2.95;;;1.20;;
43216;SDS011;71549;42.686;23.300;2024-03-25T07:57:13;1.85;;;1.30;;
43216;SDS011;71549;42.686;23.300;2024-03-25T07:59:14;2.40;;;1.30;;
43216;SDS011;71549;42.686;23.300;2024-03-25T08:01:15;3.67;;;1.48;;
43216;SDS011;71549;42.686;23.300;2024-03-25T08:03:16;1.45;;;1.23;;
43216;SDS011;71549;42.686;23.300;2024-03-25T08:05:17;2.67;;;1.25;;
43216;SDS011;71549;42.686;23.300;2024-03-25T08:07:19;2.22;;;1.13;;
43216;SDS011;71549;42.686;23.300;2024-03-25T08:09:20;1.95;;;1.23;;
43216;SDS011;71549;42.686;23.300;2024-03-25T08:11:21;1.90;;;1.38;;
43216;SDS011;71549;42.686;23.300;2024-03-25T08:13:22;3.78;;;1.40;;
43216;SDS011;71549;42.686;23.300;2024-03-25T08:15:23;2.05;;;1.52;;
43216;SDS011;71549;42.686;23.300;2024-03-25T08:17:25;3.20;;;1.77;;
43216;SDS011;71549;42.686;23.300;2024-03-25T08:19:26;2.78;;;1.40;;
43216;SDS011;71549;42.686;23.300;2024-03-25T08:21:27;2.45;;;1.55;;
43216;SDS011;71549;42.686;23.300;2024-03-25T08:23:29;1.58;;;1.13;;
43216;SDS011;71549;42.686;23.300;2024-03-25T08:25:30;1.85;;;1.20;;
43216;SDS011;71549;42.686;23.300;2024-03-25T08:27:31;1.67;;;1.23;;
43216;SDS011;71549;42.686;23.300;2024-03-25T08:29:32;1.58;;;1.20;;
43216;SDS011;71549;42.686;23.300;2024-03-25T08:31:33;2.83;;;1.50;;
43216;SDS011;71549;42.686;23.300;2024-03-25T08:33:34;2.03;;;1.20;;
43216;SDS011;71549;42.686;23.300;2024-03-25T08:35:35;2.50;;;1.58;;
43216;SDS011;71549;42.686;23.300;2024-03-25T08:37:38;1.42;;;1.17;;
43216;SDS011;71549;42.686;23.300;2024-03-25T08:39:40;2.38;;;1.52;;
43216;SDS011;71549;42.686;23.300;2024-03-25T08:41:41;2.15;;;1.20;;
43216;SDS011;71549;42.686;23.300;2024-03-25T08:43:42;1.70;;;1.02;;
43216;SDS011;71549;42.686;23.300;2024-03-25T08:45:43;1.95;;;1.27;;
43216;SDS011;71549;42.686;23.300;2024-03-25T08:47:44;1.10;;;1.10;;
43216;SDS011;71549;42.686;23.300;2024-03-25T08:49:45;1.45;;;1.20;;
43216;SDS011;71549;42.686;23.300;2024-03-25T08:51:46;1.73;;;1.33;;
43216;SDS011;71549;42.686;23.300;2024-03-25T08:53:47;1.20;;;1.10;;
43216;SDS011;71549;42.686;23.300;2024-03-25T08:55:49;1.55;;;1.45;;
43216;SDS011;71549;42.686;23.300;2024-03-25T08:57:50;2.08;;;1.00;;
43216;SDS011;71549;42.686;23.300;2024-03-25T08:59:51;2.45;;;1.30;;
43216;SDS011;71549;42.686;23.300;2024-03-25T09:01:52;2.30;;;1.23;;
43216;SDS011;71549;42.686;23.300;2024-03-25T09:03:53;4.40;;;1.30;;
43216;SDS011;71549;42.686;23.300;2024-03-25T09:05:54;2.42;;;1.83;;
43216;SDS011;71549;42.686;23.300;2024-03-25T09:07:56;1.27;;;1.17;;
43216;SDS011;71549;42.686;23.300;2024-03-25T09:09:57;2.75;;;1.10;;
43216;SDS011;71549;42.686;23.300;2024-03-25T09:12:17;1.50;;;1.05;;
43216;SDS011;71549;42.686;23.300;2024-03-25T09:14:18;2.35;;;1.50;;
43216;SDS011;71549;42.686;23.300;2024-03-25T09:16:19;1.50;;;1.40;;
43216;SDS011;71549;42.686;23.300;2024-03-25T09:18:20;1.65;;;1.55;;
43216;SDS011;71549;42.686;23.300;2024-03-25T09:20:21;1.75;;;1.45;;
43216;SDS011;71549;42.686;23.300;2024-03-25T09:22:23;2.25;;;1.35;;
43216;SDS011;71549;42.686;23.300;2024-03-25T09:24:23;1.63;;;1.48;;
43216;SDS011;71549;42.686;23.300;2024-03-25T09:26:24;2.08;;;1.30;;
43216;SDS011;71549;42.686;23.300;2024-03-25T09:28:27;1.42;;;1.25;;
43216;SDS011;71549;42.686;23.300;2024-03-25T09:30:28;1.75;;;1.30;;
43216;SDS011;71549;42.686;23.300;2024-03-25T09:32:29;2.00;;;1.60;;
43216;SDS011;71549;42.686;23.300;2024-03-25T09:34:30;1.33;;;1.23;;
43216;SDS011;71549;42.686;23.300;2024-03-25T09:36:31;1.35;;;1.23;;
43216;SDS011;71549;42.686;23.300;2024-03-25T09:38:32;2.40;;;1.50;;
43216;SDS011;71549;42.686;23.300;2024-03-25T09:40:34;1.63;;;1.40;;
43216;SDS011;71549;42.686;23.300;2024-03-25T09:42:42;2.80;;;1.83;;
43216;SDS011;71549;42.686;23.300;2024-03-25T09:44:49;1.52;;;1.42;;
43216;SDS011;71549;42.686;23.300;2024-03-25T09:46:50;2.55;;;1.77;;
43216;SDS011;71549;42.686;23.300;2024-03-25T09:48:51;1.88;;;1.67;;
43216;SDS011;71549;42.686;23.300;2024-03-25T09:50:53;1.10;;;1.00;;
43216;SDS011;71549;42.686;23.300;2024-03-25T09:52:56;1.77;;;1.60;;
43216;SDS011;71549;42.686;23.300;2024-03-25T09:54:57;2.17;;;1.55;;
43216;SDS011;71549;42.686;23.300;2024-03-25T09:56:58;1.77;;;1.42;;
43216;SDS011;71549;42.686;23.300;2024-03-25T09:59:00;1.58;;;1.48;;
43216;SDS011;71549;42.686;23.300;2024-03-25T10:01:03;1.30;;;1.20;;
43216;SDS011;71549;42.686;23.300;2024-03-25T10:03:04;1.40;;;1.30;;
43216;SDS011;71549;42.686;23.300;2024-03-25T10:05:06;1.90;;;1.45;;
43216;SDS011;71549;42.686;23.300;2024-03-25T10:07:08;2.67;;;1.58;;
43216;SDS011;71549;42.686;23.300;2024-03-25T10:09:09;1.92;;;1.48;;
43216;SDS011;71549;42.686;23.300;2024-03-25T10:11:10;2.25;;;1.83;;
43216;SDS011;71549;42.686;23.300;2024-03-25T10:13:11;1.40;;;1.30;;
43216;SDS011;71549;42.686;23.300;2024-03-25T10:15:15;1.33;;;1.23;;
43216;SDS011;71549;42.686;23.300;2024-03-25T10:19:37;1.65;;;1.48;;
43216;SDS011;71549;42.686;23.300;2024-03-25T10:21:38;2.17;;;1.45;;
43216;SDS011;71549;42.686;23.300;2024-03-25T10:23:40;1.75;;;1.65;;
43216;SDS011;71549;42.686;23.300;2024-03-25T10:25:41;1.42;;;1.33;;
43216;SDS011;71549;42.686;23.300;2024-03-25T10:27:42;2.05;;;1.60;;
43216;SDS011;71549;42.686;23.300;2024-03-25T10:29:53;1.42;;;1.33;;
43216;SDS011;71549;42.686;23.300;2024-03-25T10:31:58;1.63;;;1.42;;
43216;SDS011;71549;42.686;23.300;2024-03-25T10:34:01;1.50;;;1.40;;
43216;SDS011;71549;42.686;23.300;2024-03-25T10:36:02;1.48;;;1.30;;
43216;SDS011;71549;42.686;23.300;2024-03-25T10:38:05;1.65;;;1.55;;
43216;SDS011;71549;42.686;23.300;2024-03-25T10:40:07;1.48;;;1.33;;
43216;SDS011;71549;42.686;23.300;2024-03-25T10:42:13;1.58;;;1.45;;
43216;SDS011;71549;42.686;23.300;2024-03-25T10:44:14;1.98;;;1.40;;
43216;SDS011;71549;42.686;23.300;2024-03-25T10:46:17;1.63;;;1.52;;
43216;SDS011;71549;42.686;23.300;2024-03-25T10:48:21;2.25;;;1.88;;
43216;SDS011;71549;42.686;23.300;2024-03-25T10:50:29;1.67;;;1.58;;
43216;SDS011;71549;42.686;23.300;2024-03-25T10:52:30;1.55;;;1.45;;
43216;SDS011;71549;42.686;23.300;2024-03-25T10:54:33;1.52;;;1.42;;
43216;SDS011;71549;42.686;23.300;2024-03-25T10:56:36;2.10;;;1.50;;
43216;SDS011;71549;42.686;23.300;2024-03-25T10:58:37;1.35;;;1.25;;
43216;SDS011;71549;42.686;23.300;2024-03-25T11:00:40;2.00;;;1.50;;
43216;SDS011;71549;42.686;23.300;2024-03-25T11:02:42;1.33;;;1.23;;
43216;SDS011;71549;42.686;23.300;2024-03-25T11:04:44;1.65;;;1.55;;
43216;SDS011;71549;42.686;23.300;2024-03-25T11:06:47;2.45;;;1.67;;
43216;SDS011;71549;42.686;23.300;2024-03-25T11:08:55;1.92;;;1.48;;
43216;SDS011;71549;42.686;23.300;2024-03-25T11:10:56;1.45;;;1.35;;
43216;SDS011;71549;42.686;23.300;2024-03-25T11:12:57;1.30;;;1.20;;
43216;SDS011;71549;42.686;23.300;2024-03-25T11:15:00;1.50;;;1.40;;
43216;SDS011;71549;42.686;23.300;2024-03-25T11:17:02;1.50;;;1.40;;
43216;SDS011;71549;42.686;23.300;2024-03-25T11:19:03;1.40;;;1.30;;
43216;SDS011;71549;42.686;23.300;2024-03-25T11:21:05;1.60;;;1.35;;
43216;SDS011;71549;42.686;23.300;2024-03-25T11:25:11;1.80;;;1.67;;
43216;SDS011;71549;42.686;23.300;2024-03-25T11:27:13;2.15;;;1.65;;
43216;SDS011;71549;42.686;23.300;2024-03-25T11:29:14;1.98;;;1.77;;
43216;SDS011;71549;42.686;23.300;2024-03-25T11:31:15;1.40;;;1.30;;
43216;SDS011;71549;42.686;23.300;2024-03-25T11:33:18;1.67;;;1.58;;
43216;SDS011;71549;42.686;23.300;2024-03-25T11:35:19;1.73;;;1.63;;
43216;SDS011;71549;42.686;23.300;2024-03-25T11:37:21;2.03;;;1.50;;
43216;SDS011;71549;42.686;23.300;2024-03-25T11:39:23;3.30;;;1.40;;
43216;SDS011;71549;42.686;23.300;2024-03-25T11:41:25;2.33;;;1.60;;
43216;SDS011;71549;42.686;23.300;2024-03-25T11:43:26;1.58;;;1.48;;
43216;SDS011;71549;42.686;23.300;2024-03-25T11:45:28;1.38;;;1.23;;
43216;SDS011;71549;42.686;23.300;2024-03-25T11:47:30;1.60;;;1.50;;
43216;SDS011;71549;42.686;23.300;2024-03-25T11:49:31;1.92;;;1.50;;
43216;SDS011;71549;42.686;23.300;2024-03-25T11:51:32;2.03;;;1.40;;
43216;SDS011;71549;42.686;23.300;2024-03-25T11:53:34;1.98;;;1.50;;
43216;SDS011;71549;42.686;23.300;2024-03-25T11:55:36;1.73;;;1.58;;
43216;SDS011;71549;42.686;23.300;2024-03-25T11:57:37;1.75;;;1.65;;
43216;SDS011;71549;42.686;23.300;2024-03-25T11:59:39;1.50;;;1.27;;
43216;SDS011;71549;42.686;23.300;2024-03-25T12:01:40;2.03;;;1.45;;
43216;SDS011;71549;42.686;23.300;2024-03-25T12:03:41;2.00;;;1.80;;
43216;SDS011;71549;42.686;23.300;2024-03-25T12:05:42;1.40;;;1.30;;
43216;SDS011;71549;42.686;23.300;2024-03-25T12:07:43;1.45;;;1.35;;
43216;SDS011;71549;42.686;23.300;2024-03-25T12:09:44;2.17;;;1.50;;
43216;SDS011;71549;42.686;23.300;2024-03-25T12:12:05;1.50;;;1.40;;
43216;SDS011;71549;42.686;23.300;2024-03-25T12:14:07;2.53;;;1.50;;